Main page
METAR-TAF:

METAR-TAF

Airports :

Rahim Yar Khan, Pakistan

Shaikh Zayed International Airport

latitude: 28-23-02N, longitude: 70-16-47E, elevation: 83 m

METAR: missing

Time: 16:00 (11:00 UTC)

Forecast

The report was made 12 hours and 55 minutes ago, at 22:05 UTC
Forecast valid from 18 at 00 UTC to 18 at 18 UTC
Wind 5 kt from the Northeast
Visibility: 4000 m
Few clouds at a height of 12000 ft
smoke
Probability 30% :
Temporary
from 18 at 00 UTC to 18 at 04 UTC
Wind kt from the North
Visibility: 2000 m
mist

TAF: OPRK 172205Z 1800/1818 05005KT 4000 FU FEW120 TN06/1801Z TX23/1810Z PROB30 TEMPO 1800/1804 00000KT 2000 BR NSC

Weather observations and forecasts of more than 4000 airports (METAR and TAF reports).

The available stations are represented by yellow and red dots on the map.

Hover mouse over dot to see the name of the station.

Then click to see weather observations and forecasts.

To change the map : click on the green buttons with a black cross to zoom in, on the green button with a dash to zoom out, or on the green arrows for adjacent maps.


METAR-TAF: